Westerville, Ohio
Current Conditions -  °F | °C
As of 6:53 PM on Friday 21 Nov 2014 (Local Time) from KOSU Reporting Station
Clear Clear  
Wind Chill: 24°   Ceiling: Unl
Heat Index: 24°   Visibility: 10mi
Dew Point:   Wind: 3mph
Humidity: 53%   Direction: 170°S
Pressure: 30.46"   Gusts: NA
Location:  40.13°N, 82.93°W
Report Text: KOSU 212353Z 17003KT 10SM CLR M04/M13 A3046 RMK AO2 SLP332 T10441128 11028 21050 56006
Loading
Personal Weather Stations






























Interactive Weather Map New forecast layout! Learn more

10-Day Weather Forecast

Advertisements
Track Severe Weather on mobile